Time;durP1;ratioP1;P1;durP2;ratioP2;P2;SDS_P1;SDS_P2;PMS_P1;PMS_P2;Temp;Humidity;BMP_temperature;BMP_pressure;BME280_temperature;BME280_humidity;BME280_pressure;Samples;Min_cycle;Max_cycle;Signal;HPM_P1;HPM_P2
2022/05/03 00:01:33;;;;;;;56.30;29.48;;;12.50;99.90;;;;;;5081508;28;20035;-45
2022/05/03 00:04:10;;;;;;;53.65;31.55;;;12.40;99.90;;;;;;5093052;28;20044;-46
2022/05/03 00:06:46;;;;;;;56.30;31.70;;;12.00;99.90;;;;;;5092762;28;20012;-46
2022/05/03 00:09:22;;;;;;;53.75;33.33;;;11.90;99.90;;;;;;5092714;28;20051;-46
2022/05/03 00:11:59;;;;;;;58.75;34.38;;;11.70;99.90;;;;;;5092371;28;20036;-45
2022/05/03 00:14:36;;;;;;;60.53;34.17;;;11.60;99.90;;;;;;5092762;28;20027;-45
2022/05/03 00:17:03;;;;;;;56.88;32.78;;;11.70;99.90;;;;;;5092961;28;20340;-45
2022/05/03 00:19:30;;;;;;;53.75;31.60;;;11.50;99.90;;;;;;5092510;28;20372;-46
2022/05/03 00:21:57;;;;;;;52.33;33.47;;;11.50;99.90;;;;;;5092393;28;20468;-45
2022/05/03 00:24:23;;;;;;;47.55;30.67;;;11.40;99.90;;;;;;5092641;28;20074;-47
2022/05/03 00:26:49;;;;;;;52.67;31.80;;;11.40;99.90;;;;;;5092503;28;20024;-46
2022/05/03 00:29:16;;;;;;;51.17;32.15;;;11.50;99.90;;;;;;5092606;28;20379;-45
2022/05/03 00:31:43;;;;;;;59.25;34.30;;;11.60;99.90;;;;;;5092410;28;20034;-49
2022/05/03 00:34:12;;;;;;;53.78;33.45;;;11.70;99.90;;;;;;5092415;28;20036;-46
2022/05/03 00:36:37;;;;;;;59.50;37.08;;;11.70;99.90;;;;;;5092022;28;20011;-46
2022/05/03 00:39:04;;;;;;;62.00;36.90;;;11.70;99.90;;;;;;5092382;28;20036;-45
2022/05/03 00:41:38;;;;;;;52.88;32.78;;;11.80;99.90;;;;;;5092159;28;20028;-45
2022/05/03 00:47:17;;;;;;;59.67;32.53;;;11.90;99.90;;;;;;5092339;28;20046;-46
2022/05/03 00:49:46;;;;;;;51.47;31.30;;;11.90;99.90;;;;;;5092270;28;20038;-46
2022/05/03 00:52:20;;;;;;;49.33;31.30;;;11.90;99.90;;;;;;5092162;28;20016;-45
2022/05/03 00:55:16;;;;;;;49.05;30.17;;;11.90;99.90;;;;;;5092229;28;20028;-45
2022/05/03 00:57:54;;;;;;;49.90;31.10;;;11.80;99.90;;;;;;5092011;28;20032;-47
2022/05/03 01:00:21;;;;;;;49.17;29.15;;;11.70;99.90;;;;;;5091957;28;20027;-46
2022/05/03 01:03:07;;;;;;;50.28;30.52;;;11.70;99.90;;;;;;5092075;28;20056;-46
2022/05/03 01:05:59;;;;;;;55.30;33.38;;;11.70;99.90;;;;;;5091689;28;20040;-45
2022/05/03 01:08:29;;;;;;;54.33;32.05;;;11.60;99.90;;;;;;5091472;28;20020;-48
2022/05/03 01:11:04;;;;;;;57.95;33.70;;;11.60;99.90;;;;;;5091515;28;20028;-46
2022/05/03 01:13:33;;;;;;;58.88;35.25;;;11.60;99.90;;;;;;5090109;28;20047;-46
2022/05/03 01:16:05;;;;;;;63.50;36.72;;;11.60;99.90;;;;;;5091615;28;20032;-45
2022/05/03 01:18:43;;;;;;;60.70;35.45;;;11.60;99.90;;;;;;5091254;28;20127;-45
2022/05/03 01:21:35;;;;;;;61.13;37.20;;;11.60;99.90;;;;;;5091688;28;20028;-45
2022/05/03 01:24:06;;;;;;;64.05;35.20;;;11.60;99.90;;;;;;5056575;28;20040;-44
2022/05/03 01:26:58;;;;;;;62.72;37.22;;;11.50;99.90;;;;;;5091167;28;20024;-46
2022/05/03 01:29:31;;;;;;;64.82;37.30;;;11.50;99.90;;;;;;5091362;28;20024;-45
2022/05/03 01:32:02;;;;;;;62.10;37.30;;;11.50;99.90;;;;;;5091235;28;20103;-46
2022/05/03 01:34:29;;;;;;;69.38;36.92;;;11.40;99.90;;;;;;5091188;28;20383;-46
2022/05/03 01:37:13;;;;;;;58.80;38.25;;;11.40;99.90;;;;;;5072814;28;20028;-46
2022/05/03 01:39:42;;;;;;;66.25;38.05;;;11.40;99.90;;;;;;5090935;28;20490;-46
2022/05/03 01:42:23;;;;;;;64.78;39.25;;;11.40;99.90;;;;;;5090729;28;20818;-46
2022/05/03 01:45:03;;;;;;;67.57;38.45;;;11.50;99.90;;;;;;5090751;28;20050;-45
2022/05/03 01:47:59;;;;;;;66.20;37.42;;;11.40;99.90;;;;;;5090610;28;20147;-46
2022/05/03 01:50:34;;;;;;;68.28;38.03;;;11.40;99.90;;;;;;5090513;28;20035;-45
2022/05/03 01:53:03;;;;;;;64.00;36.45;;;11.50;99.90;;;;;;5080570;28;20025;-46
2022/05/03 01:55:59;;;;;;;73.28;41.25;;;11.20;99.90;;;;;;5070252;28;20019;-44
2022/05/03 01:58:49;;;;;;;73.45;43.58;;;10.60;99.90;;;;;;5074452;28;20020;-45
2022/05/03 02:01:24;;;;;;;74.05;45.00;;;10.70;99.90;;;;;;5087819;28;20019;-45
2022/05/03 02:03:55;;;;;;;74.32;42.97;;;10.80;99.90;;;;;;5090844;28;20040;-45
2022/05/03 02:06:57;;;;;;;71.47;41.42;;;10.60;99.90;;;;;;5078132;28;20060;-46
2022/05/03 02:09:56;;;;;;;71.50;43.15;;;10.30;99.90;;;;;;5070640;28;20112;-46
2022/05/03 02:12:22;;;;;;;75.00;43.75;;;10.30;99.90;;;;;;5070097;28;20097;-46
2022/05/03 02:15:02;;;;;;;77.78;43.25;;;10.40;99.90;;;;;;5070359;28;20032;-45
2022/05/03 02:17:43;;;;;;;70.97;42.33;;;10.50;99.90;;;;;;5074749;28;20081;-44
2022/05/03 02:20:28;;;;;;;76.03;41.85;;;10.60;99.90;;;;;;5090881;28;20592;-44
2022/05/03 02:23:24;;;;;;;69.10;42.17;;;10.70;99.90;;;;;;5090263;28;20032;-44
2022/05/03 02:26:17;;;;;;;64.05;39.80;;;10.80;99.90;;;;;;5090431;28;20028;-45
2022/05/03 02:28:46;;;;;;;67.78;39.70;;;10.80;99.90;;;;;;5090841;28;20112;-44
2022/05/03 02:31:21;;;;;;;85.93;40.92;;;10.80;99.90;;;;;;5090583;28;20024;-45
2022/05/03 02:33:54;;;;;;;78.43;39.70;;;10.80;99.90;;;;;;5090468;28;20057;-44
2022/05/03 02:36:24;;;;;;;65.70;39.92;;;10.70;99.90;;;;;;5090714;28;20123;-45
2022/05/03 02:39:03;;;;;;;65.82;40.88;;;10.70;99.90;;;;;;5090244;28;20024;-45
2022/05/03 02:41:38;;;;;;;82.72;44.67;;;10.50;99.90;;;;;;5090429;28;20362;-45
2022/05/03 02:44:04;;;;;;;73.10;43.25;;;10.40;99.90;;;;;;5090160;28;20479;-44
2022/05/03 02:46:49;;;;;;;72.55;41.25;;;10.30;99.90;;;;;;5090496;28;20036;-45
2022/05/03 02:49:44;;;;;;;65.63;43.08;;;10.50;99.90;;;;;;5090324;28;20020;-44
2022/05/03 02:52:26;;;;;;;71.13;42.50;;;10.60;99.90;;;;;;5042925;28;20047;-47
2022/05/03 02:55:18;;;;;;;66.63;42.58;;;10.70;99.90;;;;;;5090107;28;20107;-46
2022/05/03 02:57:47;;;;;;;68.70;38.50;;;10.90;99.90;;;;;;5090455;28;20062;-45
2022/05/03 03:03:03;;;;;;;62.92;37.88;;;10.90;99.90;;;;;;5090068;28;20063;-45
2022/05/03 03:05:30;;;;;;;62.92;37.05;;;10.80;99.90;;;;;;5090340;28;20403;-51
2022/05/03 03:08:01;;;;;;;69.07;40.38;;;10.80;99.90;;;;;;5090306;28;20016;-45
2022/05/03 03:10:50;;;;;;;77.13;45.70;;;10.70;99.90;;;;;;5089911;28;20529;-46
2022/05/03 03:13:23;;;;;;;71.60;45.08;;;10.50;99.90;;;;;;5044016;28;20048;-46
2022/05/03 03:15:49;;;;;;;79.60;46.08;;;10.50;99.90;;;;;;5049801;28;20071;-46
2022/05/03 03:18:20;;;;;;;52.40;30.17;;;10.60;99.90;;;;;;5049841;28;20048;-45
2022/05/03 03:20:57;;;;;;;55.58;33.20;;;10.60;99.90;;;;;;5049851;28;20032;-45
2022/05/03 03:23:28;;;;;;;22.73;13.32;;;11.00;99.90;;;;;;5049621;28;20013;-45
2022/05/03 03:25:54;;;;;;;18.92;11.50;;;11.20;99.90;;;;;;5049700;28;20108;-45
2022/05/03 03:28:22;;;;;;;40.17;25.27;;;11.70;99.90;;;;;;5049816;28;20037;-45
2022/05/03 03:30:52;;;;;;;36.00;21.30;;;11.50;99.90;;;;;;5031694;28;20029;-47
2022/05/03 03:33:21;;;;;;;37.92;24.48;;;11.50;99.90;;;;;;5050018;28;20070;-45
2022/05/03 03:35:48;;;;;;;44.20;26.13;;;11.50;99.90;;;;;;5050822;28;20039;-46
2022/05/03 03:38:14;;;;;;;37.47;24.80;;;11.40;99.90;;;;;;5053581;28;20021;-45
2022/05/03 03:40:44;;;;;;;30.05;18.33;;;11.40;99.90;;;;;;5052209;28;20029;-45
2022/05/03 03:43:10;;;;;;;37.67;26.40;;;11.50;99.90;;;;;;5036128;28;20491;-46
2022/05/03 03:45:35;;;;;;;42.85;28.58;;;11.50;99.90;;;;;;5053347;28;20098;-46
2022/05/03 03:48:03;;;;;;;44.55;30.27;;;11.40;99.90;;;;;;5052587;28;20367;-45
2022/05/03 03:50:30;;;;;;;47.83;31.13;;;11.40;99.90;;;;;;5053031;28;20479;-47
2022/05/03 03:52:56;;;;;;;40.90;28.23;;;11.40;99.90;;;;;;5053341;28;20036;-45
2022/05/03 03:55:22;;;;;;;42.38;27.85;;;11.40;99.90;;;;;;5053249;28;20111;-47
2022/05/03 03:57:49;;;;;;;44.25;28.42;;;11.50;99.90;;;;;;5053411;28;20059;-46
2022/05/03 04:00:16;;;;;;;;;;;11.60;99.90;;;;;;5053605;28;20104;-45
2022/05/03 04:02:43;;;;;;;49.58;29.95;;;11.50;99.90;;;;;;5052944;28;19904;-46
2022/05/03 04:05:14;;;;;;;;;;;11.50;99.90;;;;;;5053509;28;20048;-45
2022/05/03 04:07:39;;;;;;;53.42;34.83;;;11.50;99.90;;;;;;5052968;28;19909;-45
2022/05/03 04:10:05;;;;;;;49.53;29.63;;;11.50;99.90;;;;;;5051563;28;20032;-46
2022/05/03 04:12:32;;;;;;;50.75;31.88;;;11.40;99.90;;;;;;5078882;28;20083;-45
2022/05/03 04:14:57;;;;;;;49.00;31.42;;;11.60;99.90;;;;;;5074961;28;20024;-46
2022/05/03 04:17:23;;;;;;;47.75;31.10;;;11.50;99.90;;;;;;5092857;28;20391;-46
2022/05/03 04:19:49;;;;;;;42.08;30.77;;;11.50;99.90;;;;;;5093030;28;20377;-47
2022/05/03 04:22:28;;;;;;;48.92;33.28;;;11.50;99.90;;;;;;5092958;28;20028;-44
2022/05/03 04:24:55;;;;;;;50.40;33.38;;;11.40;99.90;;;;;;5092840;28;20065;-46
2022/05/03 04:27:22;;;;;;;45.33;31.07;;;11.40;99.90;;;;;;5093056;28;20027;-45
2022/05/03 04:29:49;;;;;;;49.70;31.92;;;11.50;99.90;;;;;;5092826;28;20032;-47
2022/05/03 04:32:15;;;;;;;44.42;31.85;;;11.60;99.90;;;;;;5092824;28;20264;-46
2022/05/03 04:34:41;;;;;;;56.80;35.20;;;11.60;99.90;;;;;;5092721;28;20120;-45
2022/05/03 04:37:07;;;;;;;44.60;31.50;;;11.60;99.90;;;;;;5092719;28;20032;-45
2022/05/03 04:39:33;;;;;;;57.25;35.67;;;11.60;99.90;;;;;;5092513;28;20492;-46
2022/05/03 04:41:58;;;;;;;50.85;34.03;;;11.70;99.90;;;;;;5092505;28;20052;-45
2022/05/03 04:44:24;;;;;;;49.15;34.40;;;11.70;99.90;;;;;;5092492;28;20132;-44
2022/05/03 04:46:50;;;;;;;54.13;34.88;;;11.70;99.90;;;;;;5091992;28;20024;-45
2022/05/03 04:49:15;;;;;;;48.30;33.70;;;11.60;99.90;;;;;;5092642;28;20103;-45
2022/05/03 04:51:41;;;;;;;50.67;33.22;;;11.70;99.90;;;;;;5092260;28;20020;-45
2022/05/03 04:54:08;;;;;;;47.50;33.17;;;11.70;99.90;;;;;;5087005;28;20024;-44
2022/05/03 04:56:35;;;;;;;56.45;36.90;;;11.70;99.90;;;;;;5072108;28;20060;-45
2022/05/03 04:59:02;;;;;;;54.10;35.75;;;11.70;99.90;;;;;;5071865;28;20082;-44
2022/05/03 05:01:29;;;;;;;58.30;34.95;;;11.80;99.90;;;;;;5075631;28;20048;-45
2022/05/03 05:03:55;;;;;;;55.37;36.03;;;11.90;99.90;;;;;;5092212;28;20482;-45
2022/05/03 05:06:21;;;;;;;56.60;38.37;;;11.80;99.90;;;;;;5092247;28;20277;-45
2022/05/03 05:08:47;;;;;;;60.83;38.05;;;11.90;99.90;;;;;;5092008;28;20032;-44
2022/05/03 05:11:13;;;;;;;55.83;37.40;;;11.90;99.90;;;;;;5091865;28;20099;-44
2022/05/03 05:13:39;;;;;;;53.08;38.17;;;12.00;99.90;;;;;;5092081;28;20383;-44
2022/05/03 05:16:06;;;;;;;57.85;39.85;;;12.00;99.90;;;;;;5091835;28;20360;-45
2022/05/03 05:18:32;;;;;;;55.95;38.47;;;12.00;99.90;;;;;;5073729;28;20034;-46
2022/05/03 05:20:58;;;;;;;63.80;38.17;;;12.00;99.90;;;;;;5092028;28;20111;-45
2022/05/03 05:23:24;;;;;;;57.13;39.58;;;12.00;99.90;;;;;;5091729;28;20107;-46
2022/05/03 05:25:51;;;;;;;59.35;37.55;;;12.10;99.90;;;;;;5091509;28;20093;-46
2022/05/03 05:28:18;;;;;;;56.35;39.20;;;12.20;99.90;;;;;;5091730;28;20028;-46
2022/05/03 05:30:45;;;;;;;67.82;43.25;;;12.30;99.90;;;;;;5091672;28;20035;-53
2022/05/03 05:33:11;;;;;;;68.47;44.92;;;12.40;99.90;;;;;;5072266;28;20035;-46
2022/05/03 05:35:37;;;;;;;63.65;41.85;;;12.40;99.90;;;;;;5080743;28;20028;-45
2022/05/03 05:38:03;;;;;;;63.75;42.28;;;12.50;99.90;;;;;;5081978;28;20058;-44
2022/05/03 05:40:29;;;;;;;61.65;41.17;;;12.50;99.90;;;;;;5080218;28;20016;-45
2022/05/03 05:42:55;;;;;;;63.97;43.28;;;12.60;99.90;;;;;;5080537;28;20081;-46
2022/05/03 05:45:21;;;;;;;67.53;43.63;;;12.70;99.90;;;;;;5082025;28;20123;-45
2022/05/03 05:47:47;;;;;;;62.75;41.65;;;12.80;99.90;;;;;;5081733;28;20102;-46
2022/05/03 05:50:13;;;;;;;69.05;44.50;;;12.80;99.90;;;;;;5080382;28;20027;-46
2022/05/03 05:55:24;;;;;;;55.53;40.63;;;12.90;99.90;;;;;;5082922;28;20034;-46
2022/05/03 05:57:50;;;;;;;48.88;34.70;;;13.00;99.90;;;;;;5079789;28;20103;-45
2022/05/03 06:00:16;;;;;;;48.05;32.83;;;13.00;99.90;;;;;;5069913;28;20111;-46
2022/05/03 06:02:42;;;;;;;46.70;33.42;;;13.10;99.90;;;;;;5081519;28;20030;-45
2022/05/03 06:05:08;;;;;;;46.45;33.85;;;13.10;99.90;;;;;;5079344;28;20029;-45
2022/05/03 06:07:34;;;;;;;42.40;31.27;;;13.20;99.90;;;;;;5080555;28;20684;-45
2022/05/03 06:10:00;;;;;;;47.30;31.73;;;13.20;99.90;;;;;;5081113;28;20035;-46
2022/05/03 06:12:26;;;;;;;48.28;30.80;;;13.30;99.90;;;;;;5068895;28;20542;-45
2022/05/03 06:14:52;;;;;;;45.05;31.70;;;13.30;99.90;;;;;;5080511;28;20028;-46
2022/05/03 06:17:17;;;;;;;40.80;30.63;;;13.40;99.90;;;;;;5069647;28;20027;-46
2022/05/03 06:19:44;;;;;;;42.70;31.70;;;13.40;99.90;;;;;;5081180;28;20519;-45
2022/05/03 06:22:10;;;;;;;42.10;30.20;;;13.40;99.90;;;;;;5070860;28;20031;-45
2022/05/03 06:24:36;;;;;;;45.38;29.70;;;13.50;99.90;;;;;;5080156;28;20044;-45
2022/05/03 06:27:01;;;;;;;44.53;30.65;;;13.60;99.90;;;;;;5069512;28;20028;-46
2022/05/03 06:29:27;;;;;;;42.60;30.80;;;13.60;99.90;;;;;;5080816;28;20421;-46
2022/05/03 06:31:53;;;;;;;44.85;33.30;;;13.60;99.90;;;;;;5079784;28;20084;-46
2022/05/03 06:34:19;;;;;;;43.40;32.75;;;13.60;99.90;;;;;;5079188;28;20028;-46
2022/05/03 06:36:45;;;;;;;48.97;31.90;;;13.70;99.90;;;;;;5080662;28;20027;-45
2022/05/03 06:39:12;;;;;;;46.60;31.27;;;13.70;99.90;;;;;;5079236;28;20024;-46
2022/05/03 06:41:38;;;;;;;43.40;32.53;;;13.70;99.90;;;;;;5079191;28;20478;-45
2022/05/03 06:44:03;;;;;;;42.90;30.23;;;13.70;99.90;;;;;;5080881;28;20027;-46
2022/05/03 06:46:29;;;;;;;48.17;34.95;;;13.70;99.90;;;;;;5078572;28;20024;-46
2022/05/03 06:48:55;;;;;;;45.33;33.28;;;13.80;99.90;;;;;;5079450;28;20020;-44
2022/05/03 06:51:21;;;;;;;43.97;30.90;;;13.90;99.90;;;;;;5080783;28;20074;-46
2022/05/03 06:53:47;;;;;;;49.92;34.78;;;14.00;99.90;;;;;;5079690;28;20028;-45
2022/05/03 06:56:14;;;;;;;52.03;37.15;;;14.10;99.90;;;;;;5079769;28;20431;-46
2022/05/03 06:58:40;;;;;;;55.17;40.33;;;14.10;99.90;;;;;;5068841;28;20028;-46
2022/05/03 07:01:14;;;;;;;51.55;38.78;;;14.30;99.90;;;;;;5068846;28;20036;-46
2022/05/03 07:03:41;;;;;;;53.05;37.45;;;14.40;99.90;;;;;;5081209;28;20068;-45
2022/05/03 07:06:07;;;;;;;49.58;35.95;;;14.50;99.90;;;;;;5081105;28;20501;-46
2022/05/03 07:08:33;;;;;;;49.83;36.13;;;14.60;99.90;;;;;;5079623;28;20169;-45
2022/05/03 07:10:59;;;;;;;53.85;33.80;;;14.70;99.90;;;;;;5079754;28;20120;-46
2022/05/03 07:13:26;;;;;;;48.47;34.20;;;14.80;99.90;;;;;;5078251;28;20090;-45
2022/05/03 07:15:55;;;;;;;49.40;35.40;;;14.80;99.90;;;;;;5069743;28;20054;-46
2022/05/03 07:23:50;;;;;;;50.50;35.25;;;15.30;99.90;;;;;;5080516;28;20079;-47
2022/05/03 07:26:15;;;;;;;51.35;35.42;;;15.30;99.90;;;;;;5079400;28;20024;-46
2022/05/03 07:28:41;;;;;;;47.33;33.65;;;15.40;99.90;;;;;;5068435;28;20024;-46
2022/05/03 07:31:08;;;;;;;42.42;31.55;;;15.60;99.90;;;;;;5079803;28;20020;-46
2022/05/03 07:33:34;;;;;;;43.05;32.05;;;15.70;99.90;;;;;;5082027;28;20024;-47
2022/05/03 07:36:00;;;;;;;44.13;32.88;;;15.70;99.90;;;;;;5089978;28;20035;-46
2022/05/03 07:38:26;;;;;;;43.30;30.75;;;15.80;99.90;;;;;;5089932;28;20035;-45
2022/05/03 07:40:51;;;;;;;43.08;31.25;;;15.90;99.90;;;;;;5089616;28;20024;-46
2022/05/03 07:43:17;;;;;;;44.78;31.05;;;16.10;99.90;;;;;;5089725;28;20028;-46
2022/05/03 07:45:43;;;;;;;41.38;30.10;;;16.10;99.90;;;;;;5089490;28;20036;-46
2022/05/03 07:48:08;;;;;;;43.70;31.08;;;16.10;99.90;;;;;;5089404;28;20032;-45
2022/05/03 07:50:34;;;;;;;46.75;31.75;;;16.10;99.90;;;;;;5089815;28;20475;-47
2022/05/03 07:53:00;;;;;;;33.67;22.55;;;16.30;99.90;;;;;;5089676;28;20656;-47
2022/05/03 07:55:26;;;;;;;37.78;27.00;;;16.30;99.90;;;;;;5089308;28;20035;-46
2022/05/03 07:57:52;;;;;;;41.05;29.45;;;16.40;99.90;;;;;;5089590;28;20024;-45
2022/05/03 08:00:18;;;;;;;39.28;28.10;;;16.50;99.90;;;;;;5089304;28;20036;-46
2022/05/03 08:02:43;;;;;;;37.20;27.15;;;16.60;99.90;;;;;;5089433;28;20024;-45
2022/05/03 08:05:10;;;;;;;38.00;26.90;;;16.80;99.90;;;;;;5089089;28;20040;-46
2022/05/03 08:07:36;;;;;;;26.85;18.80;;;17.00;99.90;;;;;;5089205;28;20026;-46
2022/05/03 08:10:05;;;;;;;27.67;20.27;;;17.10;99.90;;;;;;5089169;28;20028;-45
2022/05/03 08:12:31;;;;;;;23.95;16.10;;;17.10;99.90;;;;;;5089180;28;20066;-47
2022/05/03 08:14:57;;;;;;;21.98;15.05;;;17.30;99.90;;;;;;5089098;28;20040;-46
2022/05/03 08:17:25;;;;;;;16.98;11.90;;;17.40;99.90;;;;;;5088021;28;20016;-47
2022/05/03 08:19:51;;;;;;;22.65;14.38;;;17.60;94.00;;;;;;5088945;28;20028;-46
2022/05/03 08:22:16;;;;;;;29.95;18.00;;;17.70;95.40;;;;;;5090953;28;20501;-45
2022/05/03 08:24:42;;;;;;;27.63;18.70;;;17.80;96.00;;;;;;5092713;28;20045;-46
2022/05/03 08:27:08;;;;;;;24.80;17.92;;;17.80;95.60;;;;;;5092598;28;20461;-46
2022/05/03 08:29:34;;;;;;;28.58;18.58;;;17.70;94.70;;;;;;5092568;28;20099;-46
2022/05/03 08:32:01;;;;;;;23.38;16.88;;;17.80;93.70;;;;;;5092764;28;20111;-46
2022/05/03 08:34:26;;;;;;;27.48;19.02;;;17.90;96.40;;;;;;5092386;28;20556;-45
2022/05/03 08:42:21;;;;;;;25.30;17.20;;;18.30;92.30;;;;;;5092504;28;20062;-46
2022/05/03 08:44:46;;;;;;;24.38;14.60;;;18.40;91.10;;;;;;5092266;28;20035;-46
2022/05/03 08:47:14;;;;;;;29.90;12.65;;;18.60;91.00;;;;;;5091717;28;20022;-46
2022/05/03 08:50:02;;;;;;;16.73;11.93;;;18.80;90.20;;;;;;5092056;28;20601;-46
2022/05/03 08:52:33;;;;;;;16.70;11.70;;;18.70;85.70;;;;;;5091824;28;20027;-45
2022/05/03 08:55:00;;;;;;;15.65;11.05;;;18.60;81.20;;;;;;5092111;28;20036;-46
2022/05/03 08:57:26;;;;;;;17.88;12.90;;;18.60;81.40;;;;;;5092254;28;20850;-45
2022/05/03 08:59:53;;;;;;;18.38;11.27;;;18.70;81.50;;;;;;5092076;28;20457;-45
2022/05/03 09:02:19;;;;;;;;;;;18.70;83.90;;;;;;5092393;28;20528;-46
2022/05/03 09:04:44;;;;;;;16.00;10.43;;;18.70;80.20;;;;;;5092278;28;19916;-45
2022/05/03 09:07:21;;;;;;;14.90;9.30;;;18.90;77.50;;;;;;5091861;28;20393;-46
2022/05/03 09:09:49;;;;;;;19.10;12.45;;;19.10;77.40;;;;;;5091972;28;20031;-46
2022/05/03 09:12:31;;;;;;;21.55;12.60;;;19.30;81.20;;;;;;5091902;28;20051;-45
2022/05/03 09:14:59;;;;;;;19.17;12.10;;;19.70;82.30;;;;;;5091670;28;20024;-46
2022/05/03 09:17:43;;;;;;;17.95;12.23;;;19.80;80.00;;;;;;5091693;28;20583;-46
2022/05/03 09:25:52;;;;;;;17.33;10.90;;;20.50;81.30;;;;;;5091600;28;20047;-46
2022/05/03 09:28:22;;;;;;;20.20;11.38;;;20.40;77.00;;;;;;5091433;28;20118;-47
2022/05/03 09:30:50;;;;;;;19.75;11.40;;;20.60;70.00;;;;;;5091407;28;20035;-47
2022/05/03 09:33:18;;;;;;;27.35;12.55;;;20.10;67.90;;;;;;5072219;28;20360;-46
2022/05/03 09:35:45;;;;;;;16.98;10.85;;;20.20;68.30;;;;;;5091435;28;20157;-46
2022/05/03 09:38:11;;;;;;;18.15;10.27;;;20.20;69.60;;;;;;5090925;28;20020;-46
2022/05/03 09:40:42;;;;;;;17.05;11.60;;;20.40;71.40;;;;;;5091082;28;20317;-46
2022/05/03 09:43:11;;;;;;;21.35;11.98;;;20.70;73.00;;;;;;5090799;28;20054;-46
2022/05/03 09:45:37;;;;;;;21.10;11.73;;;21.20;75.40;;;;;;5090388;28;20107;-46
2022/05/03 09:48:04;;;;;;;18.73;10.97;;;21.40;71.10;;;;;;5091135;28;20031;-46
2022/05/03 09:50:30;;;;;;;28.33;12.82;;;21.50;70.70;;;;;;5082206;28;20380;-45
2022/05/03 09:52:57;;;;;;;21.23;12.93;;;21.60;68.10;;;;;;5070451;28;20025;-46
2022/05/03 09:55:34;;;;;;;22.13;12.75;;;21.90;74.50;;;;;;5069869;28;20100;-46
2022/05/03 09:58:02;;;;;;;17.45;12.20;;;22.00;69.00;;;;;;5071050;28;20246;-46
2022/05/03 10:00:31;;;;;;;19.52;10.68;;;22.10;68.90;;;;;;5069787;28;20024;-46
2022/05/03 10:02:59;;;;;;;20.00;10.75;;;22.10;65.10;;;;;;5067836;28;20454;-47
2022/05/03 10:05:25;;;;;;;17.00;10.38;;;22.00;64.80;;;;;;5068062;28;20056;-46
2022/05/03 10:07:52;;;;;;;16.65;9.90;;;21.90;64.20;;;;;;5069655;28;20642;-47
2022/05/03 10:10:19;;;;;;;15.50;10.27;;;22.10;62.50;;;;;;5068196;28;20040;-46
2022/05/03 10:12:47;;;;;;;15.55;10.07;;;21.90;62.00;;;;;;5069572;28;20457;-47
2022/05/03 10:20:35;;;;;;;15.52;9.98;;;21.60;61.70;;;;;;5070266;28;20036;-46
2022/05/03 10:20:47;;;;;;;14.70;9.50;;;21.30;61.00;;;;;;5070667;28;20067;-46
2022/05/03 10:23:36;;;;;;;13.02;8.57;;;21.40;60.90;;;;;;5070573;28;20027;-45
2022/05/03 10:26:08;;;;;;;14.88;8.45;;;21.50;60.10;;;;;;5062216;28;20049;-46
2022/05/03 10:29:08;;;;;;;13.30;8.57;;;21.80;62.10;;;;;;5070944;28;20033;-47
2022/05/03 10:31:54;;;;;;;13.30;7.78;;;21.60;58.80;;;;;;5070438;28;20029;-46
2022/05/03 10:34:49;;;;;;;11.30;7.13;;;21.50;59.50;;;;;;5066414;28;20032;-46
2022/05/03 10:37:40;;;;;;;22.25;8.57;;;21.50;59.40;;;;;;5090294;28;20020;-46
2022/05/03 10:40:12;;;;;;;19.63;7.03;;;21.30;60.00;;;;;;5090251;28;20032;-45
2022/05/03 10:42:38;;;;;;;18.85;8.43;;;21.30;62.20;;;;;;5090361;28;20520;-46
2022/05/03 10:45:12;;;;;;;14.75;8.88;;;21.30;63.00;;;;;;5089861;28;20082;-46
2022/05/03 10:47:47;;;;;;;13.80;9.02;;;21.30;64.00;;;;;;5090453;28;20032;-48
2022/05/03 10:50:15;;;;;;;13.60;8.45;;;21.30;63.30;;;;;;5071945;28;20019;-46
2022/05/03 10:52:45;;;;;;;10.88;7.05;;;21.20;61.80;;;;;;5089849;28;20024;-47
2022/05/03 10:55:12;;;;;;;11.75;7.55;;;21.40;63.10;;;;;;5075013;28;20028;-46
2022/05/03 10:58:15;;;;;;;13.23;7.43;;;21.60;60.80;;;;;;5068480;28;20129;-46
2022/05/03 11:01:08;;;;;;;11.75;7.38;;;21.80;62.20;;;;;;5069281;28;20024;-46
2022/05/03 11:03:35;;;;;;;10.00;7.15;;;22.10;58.70;;;;;;5070120;28;20025;-50
2022/05/03 11:06:18;;;;;;;12.55;7.57;;;22.50;61.20;;;;;;5069857;28;20032;-46
2022/05/03 11:11:40;;;;;;;12.93;7.55;;;22.80;58.80;;;;;;5069492;28;20495;-46
2022/05/03 11:14:19;;;;;;;12.57;7.13;;;22.90;58.40;;;;;;5069716;28;20103;-46
2022/05/03 11:17:04;;;;;;;10.88;6.22;;;22.90;57.40;;;;;;5070062;28;20060;-46
2022/05/03 11:19:58;;;;;;;14.73;6.65;;;22.90;57.70;;;;;;5069890;28;20032;-46
2022/05/03 11:22:32;;;;;;;12.18;7.18;;;22.90;57.80;;;;;;5067145;28;20044;-46
2022/05/03 11:25:02;;;;;;;11.60;7.03;;;22.70;57.80;;;;;;5069616;28;20540;-47
2022/05/03 11:27:28;;;;;;;14.93;7.40;;;22.90;58.30;;;;;;5069642;28;20028;-46
2022/05/03 11:29:58;;;;;;;12.65;7.28;;;22.70;56.90;;;;;;5069893;28;20372;-46
2022/05/03 11:32:39;;;;;;;12.25;7.43;;;22.40;57.70;;;;;;5069685;28;20032;-47
2022/05/03 11:35:07;;;;;;;17.75;7.47;;;22.70;58.40;;;;;;5082234;28;20032;-46
2022/05/03 11:37:34;;;;;;;16.17;7.97;;;23.20;58.90;;;;;;5090006;28;20098;-46
2022/05/03 11:40:00;;;;;;;;;;;23.00;54.90;;;;;;5071984;28;20045;-46
2022/05/03 11:42:26;;;;;;;12.07;7.22;;;23.20;56.50;;;;;;5089729;28;20058;-46
2022/05/03 11:44:52;;;;;;;12.25;6.90;;;23.40;56.80;;;;;;5089199;28;20634;-45
2022/05/03 11:47:18;;;;;;;11.85;6.38;;;23.40;55.60;;;;;;5088895;28;20545;-45
2022/05/03 11:49:44;;;;;;;10.98;6.63;;;23.60;55.20;;;;;;5089289;28;20183;-45
2022/05/03 11:57:42;;;;;;;12.63;6.18;;;23.00;55.20;;;;;;5092425;28;20082;-46
2022/05/03 12:00:11;;;;;;;10.73;5.90;;;23.00;54.40;;;;;;5093554;28;20058;-46
2022/05/03 12:02:38;;;;;;;9.50;5.30;;;23.10;55.60;;;;;;5093319;28;20578;-45
2022/05/03 12:05:16;;;;;;;14.73;6.10;;;23.10;56.50;;;;;;5092435;28;20518;-46
2022/05/03 12:07:46;;;;;;;10.70;6.57;;;23.40;55.60;;;;;;5091204;28;20029;-46
2022/05/03 12:10:27;;;;;;;10.60;6.10;;;23.30;54.10;;;;;;5093210;28;20149;-46
2022/05/03 12:13:13;;;;;;;9.90;5.57;;;23.70;60.40;;;;;;5093230;28;20086;-45
2022/05/03 12:15:49;;;;;;;12.15;6.72;;;24.10;56.30;;;;;;5093188;28;20035;-46
2022/05/03 12:18:15;;;;;;;9.15;6.10;;;24.20;54.60;;;;;;5093273;28;20360;-45
2022/05/03 12:20:58;;;;;;;13.15;6.32;;;24.30;54.60;;;;;;5093050;28;20429;-46
2022/05/03 12:23:33;;;;;;;13.48;6.50;;;24.10;52.50;;;;;;5092898;28;20374;-46
2022/05/03 12:26:01;;;;;;;16.02;6.25;;;24.00;53.80;;;;;;5093382;28;20081;-47
2022/05/03 12:28:42;;;;;;;10.65;6.63;;;24.30;53.30;;;;;;5092766;28;20024;-47
2022/05/03 12:31:10;;;;;;;10.80;5.63;;;24.30;52.40;;;;;;5092630;28;20069;-46
2022/05/03 12:33:41;;;;;;;12.07;6.00;;;24.50;53.20;;;;;;5092795;28;20020;-48
2022/05/03 12:36:08;;;;;;;9.02;5.70;;;24.60;52.10;;;;;;5093039;28;20035;-46
2022/05/03 12:38:45;;;;;;;;;;;24.50;51.00;;;;;;5093383;28;20086;-47
2022/05/03 12:41:26;;;;;;;8.45;5.50;;;24.40;51.60;;;;;;5092661;28;19911;-47
2022/05/03 12:44:10;;;;;;;9.43;5.53;;;24.70;50.30;;;;;;5092168;28;20028;-46
2022/05/03 12:46:36;;;;;;;12.32;6.20;;;24.70;50.20;;;;;;5092877;28;20039;-48
2022/05/03 12:49:06;;;;;;;10.63;6.07;;;24.90;50.40;;;;;;5092490;28;20399;-46
2022/05/03 12:51:33;;;;;;;8.13;5.25;;;24.80;49.40;;;;;;5092329;28;20058;-47
2022/05/03 12:54:03;;;;;;;8.67;5.03;;;24.40;49.10;;;;;;5088262;28;20021;-47
2022/05/03 12:59:14;;;;;;;8.60;4.72;;;23.90;52.00;;;;;;5072333;28;20129;-47
2022/05/03 13:01:41;;;;;;;10.80;4.72;;;23.70;52.00;;;;;;5072279;28;20040;-46
2022/05/03 13:04:09;;;;;;;8.18;5.53;;;23.50;51.80;;;;;;5071478;28;20059;-47
2022/05/03 13:06:35;;;;;;;8.85;5.95;;;23.30;51.60;;;;;;5071374;28;20051;-47
2022/05/03 13:09:01;;;;;;;10.35;5.75;;;23.10;52.40;;;;;;5071488;28;20028;-45
2022/05/03 13:11:27;;;;;;;10.25;5.25;;;22.90;52.50;;;;;;5071564;28;20109;-46
2022/05/03 13:13:52;;;;;;;11.80;6.10;;;22.70;52.70;;;;;;5071967;28;20028;-47
2022/05/03 13:16:18;;;;;;;10.48;6.43;;;22.60;53.60;;;;;;5071617;28;20039;-46
2022/05/03 13:18:44;;;;;;;12.02;5.90;;;22.50;53.80;;;;;;5053805;28;20120;-46
2022/05/03 13:21:10;;;;;;;12.77;5.40;;;22.30;53.00;;;;;;5071487;28;20032;-46
2022/05/03 13:23:35;;;;;;;13.60;6.47;;;22.30;55.40;;;;;;5080854;28;20070;-46
2022/05/03 13:26:01;;;;;;;12.48;5.95;;;22.10;54.90;;;;;;5091533;28;20039;-46
2022/05/03 13:28:28;;;;;;;9.48;5.93;;;21.90;55.70;;;;;;5091559;28;20043;-45